createdAt,value
2018-09-08T00:01:42.358Z,16.50
2018-09-08T00:04:11.074Z,16.40
2018-09-08T00:06:39.823Z,16.40
2018-09-08T00:09:09.623Z,16.50
2018-09-08T00:11:38.798Z,16.50
2018-09-08T00:14:07.711Z,16.40
2018-09-08T00:16:41.710Z,16.40
2018-09-08T00:19:15.543Z,16.40
2018-09-08T00:21:49.667Z,16.40
2018-09-08T00:24:23.539Z,16.40
2018-09-08T00:26:51.489Z,16.30
2018-09-08T00:29:24.878Z,16.30
2018-09-08T00:31:53.745Z,16.30
2018-09-08T00:34:45.215Z,16.30
2018-09-08T00:37:14.000Z,16.30
2018-09-08T00:39:43.756Z,16.30
2018-09-08T00:42:12.850Z,16.30
2018-09-08T00:44:41.780Z,16.20
2018-09-08T00:47:10.567Z,16.20
2018-09-08T00:49:39.368Z,16.20
2018-09-08T00:52:08.691Z,16.20
2018-09-08T00:54:37.756Z,16.20
2018-09-08T00:57:06.518Z,16.20
2018-09-08T00:59:35.220Z,16.20
2018-09-08T01:02:04.001Z,16.20
2018-09-08T01:04:32.869Z,16.10
2018-09-08T01:07:01.731Z,16.10
2018-09-08T01:09:30.536Z,16.10
2018-09-08T01:11:59.308Z,16.10
2018-09-08T01:14:28.099Z,16.10
2018-09-08T01:16:56.846Z,16.00
2018-09-08T01:19:25.707Z,16.00
2018-09-08T01:21:54.506Z,16.00
2018-09-08T01:24:28.421Z,16.00
2018-09-08T01:26:57.190Z,16.00
2018-09-08T01:29:25.958Z,16.00
2018-09-08T01:31:54.719Z,16.00
2018-09-08T01:34:23.543Z,16.00
2018-09-08T01:36:52.331Z,15.90
2018-09-08T01:39:21.077Z,15.90
2018-09-08T01:41:49.807Z,16.00
2018-09-08T01:44:18.581Z,16.00
2018-09-08T01:46:47.391Z,16.10
2018-09-08T01:49:16.128Z,16.10
2018-09-08T01:51:44.930Z,16.10
2018-09-08T01:54:13.887Z,16.20
2018-09-08T01:56:42.648Z,16.10
2018-09-08T01:59:11.434Z,16.20
2018-09-08T02:01:40.132Z,16.20
2018-09-08T02:07:02.223Z,16.20
2018-09-08T02:09:30.970Z,16.10
2018-09-08T02:11:59.644Z,16.10
2018-09-08T02:14:28.747Z,16.10
2018-09-08T02:16:57.559Z,16.10
2018-09-08T02:19:26.318Z,16.00
2018-09-08T02:21:55.084Z,16.00
2018-09-08T02:24:23.895Z,16.00
2018-09-08T02:26:52.652Z,15.90
2018-09-08T02:29:21.452Z,15.80
2018-09-08T02:31:50.171Z,15.80
2018-09-08T02:34:19.220Z,15.80
2018-09-08T02:36:48.156Z,15.70
2018-09-08T02:39:16.963Z,15.80
2018-09-08T02:41:45.771Z,15.80
2018-09-08T02:44:14.530Z,15.80
2018-09-08T02:46:43.234Z,15.80
2018-09-08T02:49:12.013Z,15.80
2018-09-08T02:51:39.485Z,15.80
2018-09-08T02:54:07.088Z,15.80
2018-09-08T02:56:34.564Z,15.80
2018-09-08T02:59:02.033Z,15.80
2018-09-08T03:01:29.491Z,15.80
2018-09-08T03:04:07.002Z,15.70
2018-09-08T03:06:34.510Z,15.60
2018-09-08T03:09:01.989Z,15.50
2018-09-08T03:11:29.457Z,15.50
2018-09-08T03:14:11.797Z,15.50
2018-09-08T03:16:39.255Z,15.60
2018-09-08T03:19:06.834Z,15.50
2018-09-08T03:21:34.321Z,15.50
2018-09-08T03:24:01.786Z,15.50
2018-09-08T03:26:29.304Z,15.50
2018-09-08T03:28:56.786Z,15.50
2018-09-08T03:31:24.215Z,15.40
2018-09-08T03:33:52.142Z,15.40
2018-09-08T03:36:19.617Z,15.50
2018-09-08T03:38:47.119Z,15.50
2018-09-08T03:41:14.587Z,15.60
2018-09-08T03:43:47.247Z,15.60
2018-09-08T03:46:14.786Z,15.60
2018-09-08T03:48:42.379Z,15.60
2018-09-08T03:51:09.806Z,15.50
2018-09-08T03:53:37.371Z,15.50
2018-09-08T03:56:04.884Z,15.50
2018-09-08T03:58:32.333Z,15.40
2018-09-08T04:00:59.780Z,15.40
2018-09-08T04:03:33.718Z,15.50
2018-09-08T04:06:02.496Z,15.50
2018-09-08T04:08:31.226Z,15.50
2018-09-08T04:11:00.016Z,15.50
2018-09-08T04:13:28.829Z,15.40
2018-09-08T04:15:57.552Z,15.40
2018-09-08T04:18:26.295Z,15.50
2018-09-08T04:20:55.082Z,15.50
2018-09-08T04:23:23.763Z,15.50
2018-09-08T04:25:52.546Z,15.60
2018-09-08T04:28:21.270Z,15.60
2018-09-08T04:30:50.190Z,15.70
2018-09-08T04:33:18.906Z,15.70
2018-09-08T04:35:47.635Z,15.70
2018-09-08T04:38:16.354Z,15.70
2018-09-08T04:40:45.079Z,15.70
2018-09-08T04:43:13.828Z,15.70
2018-09-08T04:45:42.588Z,15.60
2018-09-08T04:48:11.355Z,15.70
2018-09-08T04:50:40.091Z,15.60
2018-09-08T04:53:08.940Z,15.60
2018-09-08T04:55:38.175Z,15.60
2018-09-08T04:58:07.018Z,15.60
2018-09-08T05:00:35.708Z,15.60
2018-09-08T05:03:04.459Z,15.60
2018-09-08T05:05:33.196Z,15.60
2018-09-08T05:08:01.816Z,15.60
2018-09-08T05:10:30.588Z,15.50
2018-09-08T05:12:59.328Z,15.50
2018-09-08T05:15:28.012Z,15.60
2018-09-08T05:17:56.775Z,15.60
2018-09-08T05:20:25.510Z,15.50
2018-09-08T05:22:54.265Z,15.50
2018-09-08T05:25:23.207Z,15.50
2018-09-08T05:27:52.961Z,15.50
2018-09-08T05:30:22.228Z,15.50
2018-09-08T05:32:51.303Z,15.50
2018-09-08T05:35:20.126Z,15.50
2018-09-08T05:37:48.915Z,15.40
2018-09-08T05:40:17.627Z,15.40
2018-09-08T05:42:46.462Z,15.30
2018-09-08T05:47:50.164Z,15.30
2018-09-08T05:50:19.917Z,15.30
2018-09-08T05:52:49.378Z,15.20
2018-09-08T05:55:19.483Z,15.20
2018-09-08T05:57:49.130Z,15.20
2018-09-08T06:00:27.147Z,15.20
2018-09-08T06:02:56.186Z,15.20
2018-09-08T06:05:28.305Z,15.10
2018-09-08T06:07:57.210Z,15.10
2018-09-08T06:10:26.111Z,15.00
2018-09-08T06:13:00.004Z,14.90
2018-09-08T06:15:28.677Z,14.80
2018-09-08T06:17:57.383Z,14.80
2018-09-08T06:20:26.128Z,14.80
2018-09-08T06:22:54.831Z,14.70
2018-09-08T06:25:23.611Z,14.70
2018-09-08T06:27:52.307Z,14.70
2018-09-08T06:30:21.021Z,14.70
2018-09-08T06:32:49.677Z,14.70
2018-09-08T06:35:18.451Z,14.70
2018-09-08T06:37:47.599Z,14.80
2018-09-08T06:40:16.553Z,14.80
2018-09-08T06:42:45.506Z,14.80
2018-09-08T06:45:14.220Z,14.70
2018-09-08T06:47:43.023Z,14.70
2018-09-08T06:50:11.698Z,14.70
2018-09-08T06:52:40.430Z,14.70
2018-09-08T06:55:09.258Z,14.80
2018-09-08T06:57:37.934Z,14.80
2018-09-08T07:00:07.221Z,14.90
2018-09-08T07:02:35.886Z,14.90
2018-09-08T07:05:04.687Z,15.00
2018-09-08T07:07:33.430Z,14.90
2018-09-08T07:10:02.040Z,14.80
2018-09-08T07:12:30.678Z,14.80
2018-09-08T07:14:59.431Z,14.70
2018-09-08T07:17:28.062Z,14.70
2018-09-08T07:19:56.686Z,14.70
2018-09-08T07:22:25.579Z,14.60
2018-09-08T07:24:54.351Z,14.60
2018-09-08T07:27:23.219Z,14.60
2018-09-08T07:29:52.164Z,14.70
2018-09-08T07:32:21.199Z,14.60
2018-09-08T07:34:50.058Z,14.60
2018-09-08T07:37:18.961Z,14.70
2018-09-08T07:39:47.717Z,14.70
2018-09-08T07:42:16.550Z,14.70
2018-09-08T07:44:45.369Z,14.70
2018-09-08T07:47:14.251Z,14.80
2018-09-08T07:49:43.978Z,14.80
2018-09-08T07:52:12.779Z,14.80
2018-09-08T07:54:41.899Z,14.90
2018-09-08T07:57:11.003Z,15.00
2018-09-08T07:59:39.764Z,15.00
2018-09-08T08:02:08.633Z,15.00
2018-09-08T08:04:38.117Z,15.10
2018-09-08T08:07:11.135Z,15.30
2018-09-08T08:09:39.897Z,15.70
2018-09-08T08:12:08.615Z,16.00
2018-09-08T08:14:37.490Z,16.30
2018-09-08T08:17:06.099Z,16.70
2018-09-08T08:19:35.394Z,17.00
2018-09-08T08:22:04.355Z,17.20
2018-09-08T08:24:33.134Z,17.40
2018-09-08T08:27:01.952Z,17.70
2018-09-08T08:29:30.741Z,18.10
2018-09-08T08:31:59.599Z,18.50
2018-09-08T08:34:28.346Z,18.80
2018-09-08T08:36:57.195Z,18.90
2018-09-08T08:39:25.946Z,19.10
2018-09-08T08:41:57.819Z,19.20
2018-09-08T08:44:27.662Z,19.50
2018-09-08T08:46:57.837Z,19.80
2018-09-08T08:49:28.672Z,20.00
2018-09-08T08:52:08.396Z,20.20
2018-09-08T08:54:44.096Z,20.30
2018-09-08T08:57:13.004Z,20.40
2018-09-08T08:59:41.857Z,20.40
2018-09-08T09:02:12.891Z,20.30
2018-09-08T09:04:41.671Z,20.10
2018-09-08T09:07:12.606Z,20.10
2018-09-08T09:09:42.300Z,20.00
2018-09-08T09:12:11.058Z,20.10
2018-09-08T09:14:40.127Z,20.30
2018-09-08T09:17:08.471Z,20.50
2018-09-08T09:19:48.316Z,20.60
2018-09-08T09:22:28.841Z,20.80
2018-09-08T09:25:02.861Z,21.00
2018-09-08T09:27:33.811Z,21.20
2018-09-08T09:30:03.006Z,20.90
2018-09-08T09:32:31.762Z,21.00
2018-09-08T09:35:00.448Z,21.10
2018-09-08T09:37:29.280Z,21.20
2018-09-08T09:39:58.779Z,21.40
2018-09-08T09:42:27.444Z,21.50
2018-09-08T09:44:56.190Z,21.60
2018-09-08T09:47:24.979Z,21.60
2018-09-08T09:49:53.620Z,21.60
2018-09-08T09:52:22.566Z,21.70
2018-09-08T09:54:51.396Z,21.70
2018-09-08T09:57:20.865Z,21.80
2018-09-08T09:59:53.371Z,21.80
2018-09-08T10:02:40.223Z,21.80
2018-09-08T10:05:19.037Z,21.80
2018-09-08T10:07:48.445Z,21.90
2018-09-08T10:10:30.148Z,22.00
2018-09-08T10:12:59.739Z,22.00
2018-09-08T10:15:53.785Z,22.10
2018-09-08T10:18:22.724Z,22.00
2018-09-08T10:20:51.824Z,22.00
2018-09-08T10:23:20.846Z,22.00
2018-09-08T10:25:50.176Z,22.00
2018-09-08T10:28:19.261Z,22.10
2018-09-08T10:30:48.216Z,22.20
2018-09-08T10:33:31.602Z,22.40
2018-09-08T10:36:02.170Z,22.60
2018-09-08T10:38:37.405Z,22.70
2018-09-08T10:43:56.135Z,22.50
2018-09-08T10:46:25.427Z,22.40
2018-09-08T10:49:18.072Z,22.20
2018-09-08T10:52:02.096Z,22.40
2018-09-08T10:54:31.111Z,22.50
2018-09-08T10:56:59.930Z,22.70
2018-09-08T10:59:28.928Z,22.80
2018-09-08T11:01:57.974Z,22.90
2018-09-08T11:04:26.669Z,23.00
2018-09-08T11:06:55.529Z,22.90
2018-09-08T11:09:24.390Z,23.00
2018-09-08T11:11:53.353Z,23.20
2018-09-08T11:18:07.925Z,23.30
2018-09-08T11:20:48.711Z,23.50
2018-09-08T11:23:24.800Z,23.60
2018-09-08T11:25:53.723Z,23.50
2018-09-08T11:28:22.664Z,23.60
2018-09-08T11:30:51.567Z,23.60
2018-09-08T11:33:20.354Z,23.70
2018-09-08T11:35:49.282Z,23.80
2018-09-08T11:38:19.231Z,23.90
2018-09-08T11:40:47.862Z,24.00
2018-09-08T12:02:06.364Z,24.40
2018-09-08T12:04:58.039Z,24.30
2018-09-08T12:07:33.079Z,24.30
2018-09-08T12:13:37.969Z,24.10
2018-09-08T12:16:15.384Z,24.20
2018-09-08T12:22:14.024Z,24.40
2018-09-08T12:25:06.137Z,24.50
2018-09-08T12:30:22.638Z,24.60
2018-09-08T12:32:54.110Z,24.70
2018-09-08T12:35:30.192Z,24.70
2018-09-08T12:38:05.012Z,24.60
2018-09-08T12:46:05.959Z,24.40
2018-09-08T12:51:55.116Z,24.60
2018-09-08T12:54:37.892Z,24.40
2018-09-08T12:57:10.316Z,24.40
2018-09-08T12:59:51.144Z,24.50
2018-09-08T13:02:32.947Z,24.60
2018-09-08T13:05:07.996Z,24.60
2018-09-08T13:07:38.026Z,24.50
2018-09-08T13:10:12.002Z,24.40
2018-09-08T13:12:43.684Z,24.60
2018-09-08T13:15:24.611Z,24.80
2018-09-08T13:17:55.826Z,24.90
2018-09-08T13:20:26.850Z,25.10
2018-09-08T13:23:05.033Z,25.20
2018-09-08T13:25:35.409Z,25.20
2018-09-08T13:28:04.880Z,25.00
2018-09-08T13:30:34.011Z,25.00
2018-09-08T13:33:03.851Z,24.90
2018-09-08T13:35:33.054Z,24.90
2018-09-08T13:38:02.486Z,24.80
2018-09-08T13:40:31.644Z,24.80
2018-09-08T13:43:00.782Z,24.90
2018-09-08T13:45:34.068Z,25.00
2018-09-08T13:48:03.207Z,25.00
2018-09-08T13:50:33.039Z,25.00
2018-09-08T13:53:02.129Z,25.00
2018-09-08T13:55:31.180Z,25.10
2018-09-08T13:58:00.170Z,25.10
2018-09-08T14:00:29.290Z,25.20
2018-09-08T14:02:58.553Z,25.30
2018-09-08T14:05:27.707Z,25.40
2018-09-08T14:07:59.524Z,25.60
2018-09-08T14:10:28.601Z,25.50
2018-09-08T14:12:57.797Z,25.60
2018-09-08T14:15:27.771Z,25.30
2018-09-08T14:17:59.160Z,25.00
2018-09-08T14:20:30.309Z,24.90
2018-09-08T14:23:00.142Z,24.70
2018-09-08T14:25:29.163Z,24.70
2018-09-08T14:27:58.638Z,24.60
2018-09-08T14:30:28.400Z,24.60
2018-09-08T14:32:58.131Z,24.60
2018-09-08T14:35:27.300Z,24.80
2018-09-08T14:37:58.015Z,24.70
2018-09-08T14:40:27.979Z,24.50
2018-09-08T14:42:57.304Z,24.70
2018-09-08T14:45:26.591Z,24.90
2018-09-08T14:47:56.604Z,25.00
2018-09-08T14:50:26.011Z,25.00
2018-09-08T14:52:56.044Z,25.10
2018-09-08T14:55:25.024Z,25.00
2018-09-08T14:57:54.105Z,24.90
2018-09-08T15:00:23.202Z,24.80
2018-09-08T15:02:53.700Z,24.90
2018-09-08T15:05:22.933Z,24.70
2018-09-08T15:07:52.129Z,24.70
2018-09-08T15:10:21.225Z,24.80
2018-09-08T15:12:50.308Z,24.90
2018-09-08T15:15:19.661Z,24.90
2018-09-08T15:17:48.683Z,25.00
2018-09-08T15:20:17.737Z,24.90
2018-09-08T15:22:46.686Z,24.80
2018-09-08T15:25:16.315Z,24.80
2018-09-08T15:27:45.419Z,24.80
2018-09-08T15:30:14.800Z,24.80
2018-09-08T15:32:47.122Z,24.80
2018-09-08T15:35:16.968Z,24.80
2018-09-08T15:37:47.879Z,24.80
2018-09-08T15:40:17.144Z,24.60
2018-09-08T15:42:46.267Z,24.50
2018-09-08T15:45:15.470Z,24.40
2018-09-08T15:47:44.651Z,24.10
2018-09-08T15:50:13.695Z,23.70
2018-09-08T15:52:42.872Z,23.30
2018-09-08T15:55:21.330Z,23.20
2018-09-08T15:57:50.415Z,23.20
2018-09-08T16:00:19.396Z,23.10
2018-09-08T16:02:48.415Z,23.20
2018-09-08T16:05:17.461Z,23.20
2018-09-08T16:07:46.492Z,23.10
2018-09-08T16:10:15.676Z,23.00
2018-09-08T16:12:44.896Z,22.90
2018-09-08T16:15:13.917Z,22.80
2018-09-08T16:17:42.907Z,22.80
2018-09-08T16:20:11.865Z,22.70
2018-09-08T16:22:40.837Z,22.70
2018-09-08T16:25:09.776Z,22.60
2018-09-08T16:27:39.106Z,22.40
2018-09-08T16:30:08.116Z,22.30
2018-09-08T16:32:37.042Z,22.20
2018-09-08T16:35:06.259Z,22.10
2018-09-08T16:37:35.451Z,22.00
2018-09-08T16:40:04.954Z,21.90
2018-09-08T16:42:33.956Z,21.80
2018-09-08T16:45:02.757Z,21.80
2018-09-08T16:47:31.740Z,21.70
2018-09-08T16:50:00.937Z,21.50
2018-09-08T16:52:30.159Z,21.30
2018-09-08T16:54:59.398Z,21.20
2018-09-08T16:57:28.235Z,21.10
2018-09-08T16:59:57.403Z,21.10
2018-09-08T17:02:27.065Z,21.10
2018-09-08T17:04:56.324Z,21.10
2018-09-08T17:07:25.282Z,21.10
2018-09-08T17:09:54.337Z,21.00
2018-09-08T17:12:23.790Z,20.90
2018-09-08T17:14:52.681Z,20.90
2018-09-08T17:17:21.798Z,20.70
2018-09-08T17:19:51.318Z,20.50
2018-09-08T17:22:20.259Z,20.40
2018-09-08T17:24:49.153Z,20.20
2018-09-08T17:27:18.691Z,20.20
2018-09-08T17:29:47.901Z,20.20
2018-09-08T17:32:17.976Z,20.20
2018-09-08T17:34:46.886Z,20.10
2018-09-08T17:37:15.915Z,20.10
2018-09-08T17:39:44.934Z,20.10
2018-09-08T17:42:13.960Z,20.00
2018-09-08T17:44:42.907Z,20.00
2018-09-08T17:47:11.719Z,20.00
2018-09-08T17:49:40.541Z,19.90
2018-09-08T17:52:09.490Z,19.90
2018-09-08T17:54:38.468Z,19.80
2018-09-08T17:57:07.520Z,19.70
2018-09-08T17:59:36.746Z,19.60
2018-09-08T18:02:05.737Z,19.60
2018-09-08T18:04:34.799Z,19.60
2018-09-08T18:07:03.815Z,19.50
2018-09-08T18:09:33.064Z,19.40
2018-09-08T18:12:02.214Z,19.40
2018-09-08T18:14:31.135Z,19.40
2018-09-08T18:17:00.022Z,19.40
2018-09-08T18:19:28.978Z,19.40
2018-09-08T18:21:58.182Z,19.40
2018-09-08T18:24:27.177Z,19.30
2018-09-08T18:26:56.198Z,19.20
2018-09-08T18:29:25.318Z,19.10
2018-09-08T18:31:54.285Z,19.10
2018-09-08T18:34:23.283Z,19.00
2018-09-08T18:36:52.293Z,19.00
2018-09-08T18:39:21.230Z,18.90
2018-09-08T18:41:50.251Z,18.90
2018-09-08T18:44:19.175Z,18.80
2018-09-08T18:46:48.709Z,18.70
2018-09-08T18:49:18.682Z,18.70
2018-09-08T18:51:47.664Z,18.70
2018-09-08T18:54:16.852Z,18.70
2018-09-08T18:56:45.874Z,18.70
2018-09-08T18:59:15.056Z,18.70
2018-09-08T19:01:44.109Z,18.70
2018-09-08T19:04:12.715Z,18.70
2018-09-08T19:06:41.651Z,18.70
2018-09-08T19:09:11.018Z,18.70
2018-09-08T19:11:40.003Z,18.70
2018-09-08T19:14:13.098Z,18.70
2018-09-08T19:16:42.016Z,18.60
2018-09-08T19:19:10.968Z,18.50
2018-09-08T19:21:39.983Z,18.40
2018-09-08T19:24:14.188Z,18.40
2018-09-08T19:26:43.622Z,18.40
2018-09-08T19:29:17.813Z,18.40
2018-09-08T19:31:46.741Z,18.40
2018-09-08T19:34:15.792Z,18.40
2018-09-08T19:36:44.877Z,18.50
2018-09-08T19:39:13.865Z,18.50
2018-09-08T19:41:42.860Z,18.40
2018-09-08T19:44:11.785Z,18.40
2018-09-08T19:46:45.896Z,18.30
2018-09-08T19:49:14.877Z,18.30
2018-09-08T19:51:43.743Z,18.20
2018-09-08T19:54:12.606Z,18.20
2018-09-08T19:56:46.524Z,18.20
2018-09-08T19:59:15.362Z,18.20
2018-09-08T20:01:44.252Z,18.30
2018-09-08T20:04:22.849Z,18.30
2018-09-08T20:06:52.434Z,18.40
2018-09-08T20:09:21.773Z,18.40
2018-09-08T20:11:50.972Z,18.40
2018-09-08T20:14:19.840Z,18.30
2018-09-08T20:16:50.570Z,18.30
2018-09-08T20:19:19.606Z,18.30
2018-09-08T20:21:48.683Z,18.30
2018-09-08T20:24:31.066Z,18.20
2018-09-08T20:26:59.963Z,18.30
2018-09-08T20:29:28.968Z,18.20
2018-09-08T20:31:58.793Z,18.10
2018-09-08T20:34:27.877Z,18.10
2018-09-08T20:36:56.943Z,18.00
2018-09-08T20:39:25.971Z,18.00
2018-09-08T20:41:55.023Z,18.00
2018-09-08T20:44:24.003Z,18.00
2018-09-08T20:46:53.255Z,18.00
2018-09-08T20:49:22.517Z,18.00
2018-09-08T20:51:51.526Z,18.00
2018-09-08T20:54:20.535Z,18.00
2018-09-08T20:56:49.533Z,18.00
2018-09-08T20:59:18.572Z,17.90
2018-09-08T21:01:47.497Z,17.90
2018-09-08T21:04:16.442Z,17.80
2018-09-08T21:06:55.599Z,17.80
2018-09-08T21:09:24.608Z,17.80
2018-09-08T21:11:53.762Z,17.70
2018-09-08T21:14:27.919Z,17.70
2018-09-08T21:16:57.103Z,17.60
2018-09-08T21:19:26.055Z,17.60
2018-09-08T21:21:55.158Z,17.50
2018-09-08T21:24:24.085Z,17.50
2018-09-08T21:26:53.042Z,17.30
2018-09-08T21:29:21.936Z,17.30
2018-09-08T21:31:50.806Z,17.30
2018-09-08T21:34:24.770Z,17.30
2018-09-08T21:36:53.618Z,17.30
2018-09-08T21:39:22.566Z,17.20
2018-09-08T21:41:51.475Z,17.20
2018-09-08T21:44:20.298Z,17.10
2018-09-08T21:46:49.150Z,17.00
2018-09-08T21:49:17.999Z,16.90
2018-09-08T21:51:46.919Z,16.90
2018-09-08T21:54:21.496Z,16.80
2018-09-08T21:56:50.547Z,16.80
2018-09-08T21:59:19.464Z,16.80
2018-09-08T22:01:48.404Z,16.80
2018-09-08T22:04:17.230Z,16.70
2018-09-08T22:06:46.086Z,16.70
2018-09-08T22:09:14.879Z,16.60
2018-09-08T22:11:43.807Z,16.60
2018-09-08T22:17:14.562Z,16.60
2018-09-08T22:19:43.442Z,16.50
2018-09-08T22:22:12.276Z,16.50
2018-09-08T22:24:41.167Z,16.50
2018-09-08T22:27:10.270Z,16.50
2018-09-08T22:29:39.328Z,16.50
2018-09-08T22:32:08.155Z,16.40
2018-09-08T22:34:36.988Z,16.20
2018-09-08T22:37:06.393Z,16.10
2018-09-08T22:39:35.247Z,16.10
2018-09-08T22:42:04.165Z,16.10
2018-09-08T22:47:28.867Z,16.20
2018-09-08T22:49:57.703Z,16.20
2018-09-08T22:52:26.563Z,16.30
2018-09-08T22:54:55.717Z,16.30
2018-09-08T22:57:24.571Z,16.20
2018-09-08T22:59:53.451Z,16.20
2018-09-08T23:02:22.309Z,16.20
2018-09-08T23:04:51.947Z,16.20
2018-09-08T23:07:20.920Z,16.20
2018-09-08T23:09:49.804Z,16.20
2018-09-08T23:12:18.742Z,16.30
2018-09-08T23:14:47.640Z,16.20
2018-09-08T23:17:16.560Z,16.20
2018-09-08T23:19:45.545Z,16.20
2018-09-08T23:22:14.524Z,16.10
2018-09-08T23:24:43.586Z,16.10
2018-09-08T23:27:12.444Z,16.10
2018-09-08T23:29:41.307Z,16.10
2018-09-08T23:32:10.093Z,16.10
2018-09-08T23:34:39.036Z,16.10
2018-09-08T23:37:08.202Z,16.10
2018-09-08T23:39:37.147Z,16.00
2018-09-08T23:42:06.084Z,16.00
2018-09-08T23:44:40.298Z,16.00
2018-09-08T23:47:09.251Z,16.00
2018-09-08T23:49:38.112Z,15.90
2018-09-08T23:52:07.145Z,15.90
2018-09-08T23:54:36.071Z,15.90
2018-09-08T23:57:05.146Z,15.80
2018-09-08T23:59:34.300Z,15.80
